sensor_id;sensor_type;location;lat;lon;timestamp;temperature;humidity
63537;DHT22;49686;51.880;5.632;2024-03-07T00:01:36;5.30;99.90
63537;DHT22;49686;51.880;5.632;2024-03-07T00:04:03;5.20;99.90
63537;DHT22;49686;51.880;5.632;2024-03-07T00:06:33;5.10;99.90
63537;DHT22;49686;51.880;5.632;2024-03-07T00:09:00;5.00;99.90
63537;DHT22;49686;51.880;5.632;2024-03-07T00:11:29;4.90;99.90
63537;DHT22;49686;51.880;5.632;2024-03-07T00:13:57;4.80;99.90
63537;DHT22;49686;51.880;5.632;2024-03-07T00:16:24;4.70;99.90
63537;DHT22;49686;51.880;5.632;2024-03-07T00:18:51;4.60;99.90
63537;DHT22;49686;51.880;5.632;2024-03-07T00:21:18;4.50;99.90
63537;DHT22;49686;51.880;5.632;2024-03-07T00:23:48;4.50;99.90
63537;DHT22;49686;51.880;5.632;2024-03-07T00:26:16;4.40;99.90
63537;DHT22;49686;51.880;5.632;2024-03-07T00:28:44;4.30;99.90
63537;DHT22;49686;51.880;5.632;2024-03-07T00:31:11;4.30;99.90
63537;DHT22;49686;51.880;5.632;2024-03-07T00:33:38;4.20;99.90
63537;DHT22;49686;51.880;5.632;2024-03-07T00:36:25;4.20;99.90
63537;DHT22;49686;51.880;5.632;2024-03-07T00:38:52;4.10;99.90
63537;DHT22;49686;51.880;5.632;2024-03-07T00:41:19;4.20;99.90
63537;DHT22;49686;51.880;5.632;2024-03-07T00:43:47;4.40;99.90
63537;DHT22;49686;51.880;5.632;2024-03-07T00:46:17;4.50;99.90
63537;DHT22;49686;51.880;5.632;2024-03-07T00:48:44;4.50;99.90
63537;DHT22;49686;51.880;5.632;2024-03-07T00:51:11;4.60;99.90
63537;DHT22;49686;51.880;5.632;2024-03-07T00:53:38;4.70;99.90
63537;DHT22;49686;51.880;5.632;2024-03-07T00:56:05;4.60;99.90
63537;DHT22;49686;51.880;5.632;2024-03-07T00:58:32;4.60;99.90
63537;DHT22;49686;51.880;5.632;2024-03-07T01:01:00;4.60;99.90
63537;DHT22;49686;51.880;5.632;2024-03-07T01:03:30;4.60;99.90
63537;DHT22;49686;51.880;5.632;2024-03-07T01:05:57;4.60;99.90
63537;DHT22;49686;51.880;5.632;2024-03-07T01:08:24;4.60;99.90
63537;DHT22;49686;51.880;5.632;2024-03-07T01:10:51;4.60;99.90
63537;DHT22;49686;51.880;5.632;2024-03-07T01:13:18;4.50;99.90
63537;DHT22;49686;51.880;5.632;2024-03-07T01:15:47;4.60;99.90
63537;DHT22;49686;51.880;5.632;2024-03-07T01:18:15;4.60;99.90
63537;DHT22;49686;51.880;5.632;2024-03-07T01:20:42;4.70;99.90
63537;DHT22;49686;51.880;5.632;2024-03-07T01:23:12;4.60;99.90
63537;DHT22;49686;51.880;5.632;2024-03-07T01:25:42;4.70;99.90
63537;DHT22;49686;51.880;5.632;2024-03-07T01:28:09;4.70;99.90
63537;DHT22;49686;51.880;5.632;2024-03-07T01:30:36;4.70;99.90
63537;DHT22;49686;51.880;5.632;2024-03-07T01:33:04;4.60;99.90
63537;DHT22;49686;51.880;5.632;2024-03-07T01:35:32;4.60;99.90
63537;DHT22;49686;51.880;5.632;2024-03-07T01:37:59;4.60;99.90
63537;DHT22;49686;51.880;5.632;2024-03-07T01:40:28;4.60;99.90
63537;DHT22;49686;51.880;5.632;2024-03-07T01:42:58;4.60;99.90
63537;DHT22;49686;51.880;5.632;2024-03-07T01:45:25;4.60;99.90
63537;DHT22;49686;51.880;5.632;2024-03-07T01:47:52;4.60;99.90
63537;DHT22;49686;51.880;5.632;2024-03-07T01:50:19;4.60;99.90
63537;DHT22;49686;51.880;5.632;2024-03-07T01:52:51;4.50;99.90
63537;DHT22;49686;51.880;5.632;2024-03-07T01:55:18;4.50;99.90
63537;DHT22;49686;51.880;5.632;2024-03-07T01:57:45;4.40;99.90
63537;DHT22;49686;51.880;5.632;2024-03-07T02:00:12;4.30;99.90
63537;DHT22;49686;51.880;5.632;2024-03-07T02:02:40;4.30;99.90
63537;DHT22;49686;51.880;5.632;2024-03-07T02:05:07;4.20;99.90
63537;DHT22;49686;51.880;5.632;2024-03-07T02:07:34;4.10;99.90
63537;DHT22;49686;51.880;5.632;2024-03-07T02:10:03;4.10;99.90
63537;DHT22;49686;51.880;5.632;2024-03-07T02:12:31;4.10;99.90
63537;DHT22;49686;51.880;5.632;2024-03-07T02:14:58;4.00;99.90
63537;DHT22;49686;51.880;5.632;2024-03-07T02:17:26;4.00;99.90
63537;DHT22;49686;51.880;5.632;2024-03-07T02:19:53;4.00;99.90
63537;DHT22;49686;51.880;5.632;2024-03-07T02:22:22;4.00;99.90
63537;DHT22;49686;51.880;5.632;2024-03-07T02:24:49;3.90;99.90
63537;DHT22;49686;51.880;5.632;2024-03-07T02:27:16;3.90;99.90
63537;DHT22;49686;51.880;5.632;2024-03-07T02:29:43;3.90;99.90
63537;DHT22;49686;51.880;5.632;2024-03-07T02:32:10;3.80;99.90
63537;DHT22;49686;51.880;5.632;2024-03-07T02:34:36;3.80;99.90
63537;DHT22;49686;51.880;5.632;2024-03-07T02:37:04;3.70;99.90
63537;DHT22;49686;51.880;5.632;2024-03-07T02:39:32;3.70;99.90
63537;DHT22;49686;51.880;5.632;2024-03-07T02:42:01;3.70;99.90
63537;DHT22;49686;51.880;5.632;2024-03-07T02:44:28;3.80;99.90
63537;DHT22;49686;51.880;5.632;2024-03-07T02:46:55;3.70;99.90
63537;DHT22;49686;51.880;5.632;2024-03-07T02:49:22;3.70;99.90
63537;DHT22;49686;51.880;5.632;2024-03-07T02:51:51;3.70;99.90
63537;DHT22;49686;51.880;5.632;2024-03-07T02:54:18;3.70;99.90
63537;DHT22;49686;51.880;5.632;2024-03-07T02:56:46;3.70;99.90
63537;DHT22;49686;51.880;5.632;2024-03-07T02:59:13;3.60;99.90
63537;DHT22;49686;51.880;5.632;2024-03-07T03:01:40;3.60;99.90
63537;DHT22;49686;51.880;5.632;2024-03-07T03:04:09;3.50;99.90
63537;DHT22;49686;51.880;5.632;2024-03-07T03:06:36;3.40;99.90
63537;DHT22;49686;51.880;5.632;2024-03-07T03:09:03;3.40;99.90
63537;DHT22;49686;51.880;5.632;2024-03-07T03:11:30;3.30;99.90
63537;DHT22;49686;51.880;5.632;2024-03-07T03:13:58;3.30;99.90
63537;DHT22;49686;51.880;5.632;2024-03-07T03:16:25;3.30;99.90
63537;DHT22;49686;51.880;5.632;2024-03-07T03:19:12;3.30;99.90
63537;DHT22;49686;51.880;5.632;2024-03-07T03:21:39;3.20;99.90
63537;DHT22;49686;51.880;5.632;2024-03-07T03:24:06;3.20;99.90
63537;DHT22;49686;51.880;5.632;2024-03-07T03:26:36;3.20;99.90
63537;DHT22;49686;51.880;5.632;2024-03-07T03:29:06;3.20;99.90
63537;DHT22;49686;51.880;5.632;2024-03-07T03:31:33;3.10;99.90
63537;DHT22;49686;51.880;5.632;2024-03-07T03:34:00;3.00;99.90
63537;DHT22;49686;51.880;5.632;2024-03-07T03:36:27;3.00;99.90
63537;DHT22;49686;51.880;5.632;2024-03-07T03:39:00;2.90;99.90
63537;DHT22;49686;51.880;5.632;2024-03-07T03:41:32;2.90;99.90
63537;DHT22;49686;51.880;5.632;2024-03-07T03:44:03;2.80;99.90
63537;DHT22;49686;51.880;5.632;2024-03-07T03:46:30;2.80;99.90
63537;DHT22;49686;51.880;5.632;2024-03-07T03:48:57;2.70;99.90
63537;DHT22;49686;51.880;5.632;2024-03-07T03:51:24;2.70;99.90
63537;DHT22;49686;51.880;5.632;2024-03-07T03:53:51;2.70;99.90
63537;DHT22;49686;51.880;5.632;2024-03-07T03:56:18;2.80;99.90
63537;DHT22;49686;51.880;5.632;2024-03-07T03:58:45;2.80;99.90
63537;DHT22;49686;51.880;5.632;2024-03-07T04:01:14;2.70;99.90
63537;DHT22;49686;51.880;5.632;2024-03-07T04:03:41;2.70;99.90
63537;DHT22;49686;51.880;5.632;2024-03-07T04:06:10;2.60;99.90
63537;DHT22;49686;51.880;5.632;2024-03-07T04:08:39;2.70;99.90
63537;DHT22;49686;51.880;5.632;2024-03-07T04:11:06;2.70;99.90
63537;DHT22;49686;51.880;5.632;2024-03-07T04:13:33;2.70;99.90
63537;DHT22;49686;51.880;5.632;2024-03-07T04:16:02;2.80;99.90
63537;DHT22;49686;51.880;5.632;2024-03-07T04:18:30;2.80;99.90
63537;DHT22;49686;51.880;5.632;2024-03-07T04:20:58;2.90;99.90
63537;DHT22;49686;51.880;5.632;2024-03-07T04:23:25;2.90;99.90
63537;DHT22;49686;51.880;5.632;2024-03-07T04:25:51;3.00;99.90
63537;DHT22;49686;51.880;5.632;2024-03-07T04:28:18;3.00;99.90
63537;DHT22;49686;51.880;5.632;2024-03-07T04:30:45;3.00;99.90
63537;DHT22;49686;51.880;5.632;2024-03-07T04:33:12;3.00;99.90
63537;DHT22;49686;51.880;5.632;2024-03-07T04:35:41;3.00;99.90
63537;DHT22;49686;51.880;5.632;2024-03-07T04:38:08;2.90;99.90
63537;DHT22;49686;51.880;5.632;2024-03-07T04:40:35;3.00;99.90
63537;DHT22;49686;51.880;5.632;2024-03-07T04:43:02;3.00;99.90
63537;DHT22;49686;51.880;5.632;2024-03-07T04:45:29;3.00;99.90
63537;DHT22;49686;51.880;5.632;2024-03-07T04:47:56;3.20;99.90
63537;DHT22;49686;51.880;5.632;2024-03-07T04:50:23;3.20;99.90
63537;DHT22;49686;51.880;5.632;2024-03-07T04:52:54;3.40;99.90
63537;DHT22;49686;51.880;5.632;2024-03-07T04:55:21;3.40;99.90
63537;DHT22;49686;51.880;5.632;2024-03-07T04:57:48;3.50;99.90
63537;DHT22;49686;51.880;5.632;2024-03-07T05:00:15;3.60;99.90
63537;DHT22;49686;51.880;5.632;2024-03-07T05:02:45;3.50;99.90
63537;DHT22;49686;51.880;5.632;2024-03-07T05:05:13;3.50;99.90
63537;DHT22;49686;51.880;5.632;2024-03-07T05:07:41;3.50;99.90
63537;DHT22;49686;51.880;5.632;2024-03-07T05:10:10;3.50;99.90
63537;DHT22;49686;51.880;5.632;2024-03-07T05:12:38;3.40;99.90
63537;DHT22;49686;51.880;5.632;2024-03-07T05:15:06;3.40;99.90
63537;DHT22;49686;51.880;5.632;2024-03-07T05:17:33;3.40;99.90
63537;DHT22;49686;51.880;5.632;2024-03-07T05:20:04;3.40;99.90
63537;DHT22;49686;51.880;5.632;2024-03-07T05:22:33;3.40;99.90
63537;DHT22;49686;51.880;5.632;2024-03-07T05:25:00;3.30;99.90
63537;DHT22;49686;51.880;5.632;2024-03-07T05:27:28;3.30;99.90
63537;DHT22;49686;51.880;5.632;2024-03-07T05:29:58;3.20;99.90
63537;DHT22;49686;51.880;5.632;2024-03-07T05:32:25;3.20;99.90
63537;DHT22;49686;51.880;5.632;2024-03-07T05:34:52;3.10;99.90
63537;DHT22;49686;51.880;5.632;2024-03-07T05:37:19;3.20;99.90
63537;DHT22;49686;51.880;5.632;2024-03-07T05:39:52;3.20;99.90
63537;DHT22;49686;51.880;5.632;2024-03-07T05:42:22;3.30;99.90
63537;DHT22;49686;51.880;5.632;2024-03-07T05:44:50;3.40;99.90
63537;DHT22;49686;51.880;5.632;2024-03-07T05:47:22;3.40;99.90
63537;DHT22;49686;51.880;5.632;2024-03-07T05:49:50;3.50;99.90
63537;DHT22;49686;51.880;5.632;2024-03-07T05:52:17;3.50;99.90
63537;DHT22;49686;51.880;5.632;2024-03-07T05:54:45;3.50;99.90
63537;DHT22;49686;51.880;5.632;2024-03-07T05:57:14;3.50;99.90
63537;DHT22;49686;51.880;5.632;2024-03-07T05:59:41;3.50;99.90
63537;DHT22;49686;51.880;5.632;2024-03-07T06:02:09;3.50;99.90
63537;DHT22;49686;51.880;5.632;2024-03-07T06:04:38;3.60;99.90
63537;DHT22;49686;51.880;5.632;2024-03-07T06:07:05;3.60;99.90
63537;DHT22;49686;51.880;5.632;2024-03-07T06:09:32;3.60;99.90
63537;DHT22;49686;51.880;5.632;2024-03-07T06:11:59;3.60;99.90
63537;DHT22;49686;51.880;5.632;2024-03-07T06:14:35;3.60;99.90
63537;DHT22;49686;51.880;5.632;2024-03-07T06:17:02;3.60;99.90
63537;DHT22;49686;51.880;5.632;2024-03-07T06:19:33;3.60;99.90
63537;DHT22;49686;51.880;5.632;2024-03-07T06:22:00;3.70;99.90
63537;DHT22;49686;51.880;5.632;2024-03-07T06:24:27;3.70;99.90
63537;DHT22;49686;51.880;5.632;2024-03-07T06:26:54;3.70;99.90
63537;DHT22;49686;51.880;5.632;2024-03-07T06:29:22;3.70;99.90
63537;DHT22;49686;51.880;5.632;2024-03-07T06:31:49;3.70;99.90
63537;DHT22;49686;51.880;5.632;2024-03-07T06:34:16;3.70;99.90
63537;DHT22;49686;51.880;5.632;2024-03-07T06:36:45;3.60;99.90
63537;DHT22;49686;51.880;5.632;2024-03-07T06:39:12;3.70;99.90
63537;DHT22;49686;51.880;5.632;2024-03-07T06:41:39;3.70;99.90
63537;DHT22;49686;51.880;5.632;2024-03-07T06:44:07;3.70;99.90
63537;DHT22;49686;51.880;5.632;2024-03-07T06:46:34;3.70;99.90
63537;DHT22;49686;51.880;5.632;2024-03-07T06:49:02;3.70;99.90
63537;DHT22;49686;51.880;5.632;2024-03-07T06:51:30;3.70;99.90
63537;DHT22;49686;51.880;5.632;2024-03-07T06:53:58;3.70;99.90
63537;DHT22;49686;51.880;5.632;2024-03-07T06:56:26;3.80;99.90
63537;DHT22;49686;51.880;5.632;2024-03-07T06:58:53;3.70;99.90
63537;DHT22;49686;51.880;5.632;2024-03-07T07:01:20;3.70;99.90
63537;DHT22;49686;51.880;5.632;2024-03-07T07:03:47;3.70;99.90
63537;DHT22;49686;51.880;5.632;2024-03-07T07:06:15;3.80;99.90
63537;DHT22;49686;51.880;5.632;2024-03-07T07:08:42;3.80;99.90
63537;DHT22;49686;51.880;5.632;2024-03-07T07:11:11;3.90;99.90
63537;DHT22;49686;51.880;5.632;2024-03-07T07:13:39;3.90;99.90
63537;DHT22;49686;51.880;5.632;2024-03-07T07:16:06;3.90;99.90
63537;DHT22;49686;51.880;5.632;2024-03-07T07:18:33;4.00;99.90
63537;DHT22;49686;51.880;5.632;2024-03-07T07:21:01;4.00;99.90
63537;DHT22;49686;51.880;5.632;2024-03-07T07:23:29;4.10;99.90
63537;DHT22;49686;51.880;5.632;2024-03-07T07:25:56;4.10;99.90
63537;DHT22;49686;51.880;5.632;2024-03-07T07:28:24;4.20;99.90
63537;DHT22;49686;51.880;5.632;2024-03-07T07:30:51;4.20;99.90
63537;DHT22;49686;51.880;5.632;2024-03-07T07:33:18;4.30;99.90
63537;DHT22;49686;51.880;5.632;2024-03-07T07:35:48;4.30;99.90
63537;DHT22;49686;51.880;5.632;2024-03-07T07:38:18;4.30;99.90
63537;DHT22;49686;51.880;5.632;2024-03-07T07:40:45;4.40;99.90
63537;DHT22;49686;51.880;5.632;2024-03-07T07:43:14;4.50;99.90
63537;DHT22;49686;51.880;5.632;2024-03-07T07:45:57;4.60;99.90
63537;DHT22;49686;51.880;5.632;2024-03-07T07:48:24;4.70;99.90
63537;DHT22;49686;51.880;5.632;2024-03-07T07:50:51;4.80;99.90
63537;DHT22;49686;51.880;5.632;2024-03-07T07:53:18;4.90;99.90
63537;DHT22;49686;51.880;5.632;2024-03-07T07:55:45;5.00;99.90
63537;DHT22;49686;51.880;5.632;2024-03-07T07:58:12;5.10;99.90
63537;DHT22;49686;51.880;5.632;2024-03-07T08:00:39;5.30;99.90
63537;DHT22;49686;51.880;5.632;2024-03-07T08:03:09;5.40;99.90
63537;DHT22;49686;51.880;5.632;2024-03-07T08:05:38;5.60;99.90
63537;DHT22;49686;51.880;5.632;2024-03-07T08:08:11;5.80;99.90
63537;DHT22;49686;51.880;5.632;2024-03-07T08:10:42;5.80;99.90
63537;DHT22;49686;51.880;5.632;2024-03-07T08:13:13;6.00;99.90
63537;DHT22;49686;51.880;5.632;2024-03-07T08:15:41;6.00;99.90
63537;DHT22;49686;51.880;5.632;2024-03-07T08:18:12;6.00;99.90
63537;DHT22;49686;51.880;5.632;2024-03-07T08:20:40;6.20;99.90
63537;DHT22;49686;51.880;5.632;2024-03-07T08:23:08;6.30;99.90
63537;DHT22;49686;51.880;5.632;2024-03-07T08:25:42;6.20;99.90
63537;DHT22;49686;51.880;5.632;2024-03-07T08:28:12;6.20;99.90
63537;DHT22;49686;51.880;5.632;2024-03-07T08:30:44;6.30;99.90
63537;DHT22;49686;51.880;5.632;2024-03-07T08:33:15;6.50;99.90
63537;DHT22;49686;51.880;5.632;2024-03-07T08:35:43;6.60;99.90
63537;DHT22;49686;51.880;5.632;2024-03-07T08:38:10;6.60;99.90
63537;DHT22;49686;51.880;5.632;2024-03-07T08:40:37;6.70;99.90
63537;DHT22;49686;51.880;5.632;2024-03-07T08:43:04;6.50;99.90
63537;DHT22;49686;51.880;5.632;2024-03-07T08:45:35;6.50;99.90
63537;DHT22;49686;51.880;5.632;2024-03-07T08:48:04;6.50;99.90
63537;DHT22;49686;51.880;5.632;2024-03-07T08:50:34;6.50;99.90
63537;DHT22;49686;51.880;5.632;2024-03-07T08:53:04;6.60;99.90
63537;DHT22;49686;51.880;5.632;2024-03-07T08:55:36;6.70;99.90
63537;DHT22;49686;51.880;5.632;2024-03-07T08:58:04;6.80;99.90
63537;DHT22;49686;51.880;5.632;2024-03-07T09:00:34;6.70;99.90
63537;DHT22;49686;51.880;5.632;2024-03-07T09:03:07;6.80;99.90
63537;DHT22;49686;51.880;5.632;2024-03-07T09:05:40;6.90;99.90
63537;DHT22;49686;51.880;5.632;2024-03-07T09:08:09;6.90;99.90
63537;DHT22;49686;51.880;5.632;2024-03-07T09:10:35;6.90;99.90
63537;DHT22;49686;51.880;5.632;2024-03-07T09:13:03;6.90;99.90
63537;DHT22;49686;51.880;5.632;2024-03-07T09:15:30;7.00;99.90
63537;DHT22;49686;51.880;5.632;2024-03-07T09:17:58;7.20;99.90
63537;DHT22;49686;51.880;5.632;2024-03-07T09:20:26;7.30;99.90
63537;DHT22;49686;51.880;5.632;2024-03-07T09:22:54;7.30;99.90
63537;DHT22;49686;51.880;5.632;2024-03-07T09:25:23;7.40;99.90
63537;DHT22;49686;51.880;5.632;2024-03-07T09:27:50;7.50;99.90
63537;DHT22;49686;51.880;5.632;2024-03-07T09:30:17;7.50;99.90
63537;DHT22;49686;51.880;5.632;2024-03-07T09:32:46;7.70;99.90
63537;DHT22;49686;51.880;5.632;2024-03-07T09:35:16;7.80;99.90
63537;DHT22;49686;51.880;5.632;2024-03-07T09:37:44;8.00;99.90
63537;DHT22;49686;51.880;5.632;2024-03-07T09:40:16;8.10;99.90
63537;DHT22;49686;51.880;5.632;2024-03-07T09:42:44;8.00;99.90
63537;DHT22;49686;51.880;5.632;2024-03-07T09:45:15;8.00;99.90
63537;DHT22;49686;51.880;5.632;2024-03-07T09:47:45;8.00;99.90
63537;DHT22;49686;51.880;5.632;2024-03-07T09:50:14;8.00;99.90
63537;DHT22;49686;51.880;5.632;2024-03-07T09:52:41;8.10;99.90
63537;DHT22;49686;51.880;5.632;2024-03-07T09:55:17;8.10;99.90
63537;DHT22;49686;51.880;5.632;2024-03-07T09:57:47;8.20;99.90
63537;DHT22;49686;51.880;5.632;2024-03-07T10:00:17;7.90;99.90
63537;DHT22;49686;51.880;5.632;2024-03-07T10:02:44;8.00;99.90
63537;DHT22;49686;51.880;5.632;2024-03-07T10:05:17;8.20;99.90
63537;DHT22;49686;51.880;5.632;2024-03-07T10:07:44;8.20;99.90
63537;DHT22;49686;51.880;5.632;2024-03-07T10:10:11;8.50;99.90
63537;DHT22;49686;51.880;5.632;2024-03-07T10:12:39;8.70;99.90
63537;DHT22;49686;51.880;5.632;2024-03-07T10:15:10;9.00;99.90
63537;DHT22;49686;51.880;5.632;2024-03-07T10:17:37;9.00;99.90
63537;DHT22;49686;51.880;5.632;2024-03-07T10:20:06;9.10;99.90
63537;DHT22;49686;51.880;5.632;2024-03-07T10:22:33;9.30;99.90
63537;DHT22;49686;51.880;5.632;2024-03-07T10:25:00;9.40;99.90
63537;DHT22;49686;51.880;5.632;2024-03-07T10:27:27;9.60;99.90
63537;DHT22;49686;51.880;5.632;2024-03-07T10:29:56;9.50;99.90
63537;DHT22;49686;51.880;5.632;2024-03-07T10:32:24;9.50;99.90
63537;DHT22;49686;51.880;5.632;2024-03-07T10:34:51;9.50;99.90
63537;DHT22;49686;51.880;5.632;2024-03-07T10:37:20;9.50;99.90
63537;DHT22;49686;51.880;5.632;2024-03-07T10:39:47;9.50;99.90
63537;DHT22;49686;51.880;5.632;2024-03-07T10:42:14;9.40;99.90
63537;DHT22;49686;51.880;5.632;2024-03-07T10:44:43;9.40;99.90
63537;DHT22;49686;51.880;5.632;2024-03-07T10:47:16;9.40;99.90
63537;DHT22;49686;51.880;5.632;2024-03-07T10:49:48;9.60;99.90
63537;DHT22;49686;51.880;5.632;2024-03-07T10:52:28;9.80;99.90
63537;DHT22;49686;51.880;5.632;2024-03-07T10:55:04;9.80;99.90
63537;DHT22;49686;51.880;5.632;2024-03-07T10:57:46;9.70;99.90
63537;DHT22;49686;51.880;5.632;2024-03-07T11:00:18;9.70;99.90
63537;DHT22;49686;51.880;5.632;2024-03-07T11:02:48;9.70;99.90
63537;DHT22;49686;51.880;5.632;2024-03-07T11:05:16;9.80;99.90
63537;DHT22;49686;51.880;5.632;2024-03-07T11:07:43;9.80;99.90
63537;DHT22;49686;51.880;5.632;2024-03-07T11:10:10;9.80;99.90
63537;DHT22;49686;51.880;5.632;2024-03-07T11:12:39;9.90;99.90
63537;DHT22;49686;51.880;5.632;2024-03-07T11:15:07;10.00;99.90
63537;DHT22;49686;51.880;5.632;2024-03-07T11:17:37;9.80;99.90
63537;DHT22;49686;51.880;5.632;2024-03-07T11:20:25;9.80;99.90
63537;DHT22;49686;51.880;5.632;2024-03-07T11:23:27;9.80;99.90
63537;DHT22;49686;51.880;5.632;2024-03-07T11:25:55;9.80;99.90
63537;DHT22;49686;51.880;5.632;2024-03-07T11:28:29;9.90;99.90
63537;DHT22;49686;51.880;5.632;2024-03-07T11:31:07;9.80;99.90
63537;DHT22;49686;51.880;5.632;2024-03-07T11:33:34;9.70;99.90
63537;DHT22;49686;51.880;5.632;2024-03-07T11:36:02;9.80;99.90
63537;DHT22;49686;51.880;5.632;2024-03-07T11:38:31;9.70;99.90
63537;DHT22;49686;51.880;5.632;2024-03-07T11:41:00;9.90;99.90
63537;DHT22;49686;51.880;5.632;2024-03-07T11:43:27;9.80;99.90
63537;DHT22;49686;51.880;5.632;2024-03-07T11:45:55;9.90;99.90
63537;DHT22;49686;51.880;5.632;2024-03-07T11:48:23;10.00;99.90
63537;DHT22;49686;51.880;5.632;2024-03-07T11:50:51;10.00;99.90
63537;DHT22;49686;51.880;5.632;2024-03-07T11:53:20;10.00;99.90
63537;DHT22;49686;51.880;5.632;2024-03-07T11:55:47;10.20;99.90
63537;DHT22;49686;51.880;5.632;2024-03-07T11:58:15;10.20;99.90
63537;DHT22;49686;51.880;5.632;2024-03-07T12:00:43;10.10;99.90
63537;DHT22;49686;51.880;5.632;2024-03-07T12:03:11;10.30;99.90
63537;DHT22;49686;51.880;5.632;2024-03-07T12:05:39;10.40;99.90
63537;DHT22;49686;51.880;5.632;2024-03-07T12:08:10;10.60;99.90
63537;DHT22;49686;51.880;5.632;2024-03-07T12:10:39;10.80;99.90
63537;DHT22;49686;51.880;5.632;2024-03-07T12:13:07;10.90;99.90
63537;DHT22;49686;51.880;5.632;2024-03-07T12:15:35;10.60;99.90
63537;DHT22;49686;51.880;5.632;2024-03-07T12:18:03;10.50;99.90
63537;DHT22;49686;51.880;5.632;2024-03-07T12:20:30;10.60;99.90
63537;DHT22;49686;51.880;5.632;2024-03-07T12:23:00;10.60;99.90
63537;DHT22;49686;51.880;5.632;2024-03-07T12:25:27;10.40;99.90
63537;DHT22;49686;51.880;5.632;2024-03-07T12:28:06;10.30;99.90
63537;DHT22;49686;51.880;5.632;2024-03-07T12:30:34;10.00;99.90
63537;DHT22;49686;51.880;5.632;2024-03-07T12:33:04;10.10;99.90
63537;DHT22;49686;51.880;5.632;2024-03-07T12:35:31;9.90;99.90
63537;DHT22;49686;51.880;5.632;2024-03-07T12:37:59;10.20;99.90
63537;DHT22;49686;51.880;5.632;2024-03-07T12:40:26;10.30;99.90
63537;DHT22;49686;51.880;5.632;2024-03-07T12:42:53;10.30;99.90
63537;DHT22;49686;51.880;5.632;2024-03-07T12:45:24;10.40;99.90
63537;DHT22;49686;51.880;5.632;2024-03-07T12:47:51;10.40;99.90
63537;DHT22;49686;51.880;5.632;2024-03-07T12:50:18;10.40;99.90
63537;DHT22;49686;51.880;5.632;2024-03-07T12:52:48;10.40;99.90
63537;DHT22;49686;51.880;5.632;2024-03-07T12:55:15;10.30;99.90
63537;DHT22;49686;51.880;5.632;2024-03-07T12:57:42;10.30;99.90
63537;DHT22;49686;51.880;5.632;2024-03-07T13:00:10;10.20;99.90
63537;DHT22;49686;51.880;5.632;2024-03-07T13:02:39;10.10;99.90
63537;DHT22;49686;51.880;5.632;2024-03-07T13:05:06;10.10;99.90
63537;DHT22;49686;51.880;5.632;2024-03-07T13:07:33;10.10;99.90
63537;DHT22;49686;51.880;5.632;2024-03-07T13:10:02;10.10;99.90
63537;DHT22;49686;51.880;5.632;2024-03-07T13:12:29;10.10;99.90
63537;DHT22;49686;51.880;5.632;2024-03-07T13:14:56;10.20;99.90
63537;DHT22;49686;51.880;5.632;2024-03-07T13:17:24;10.30;99.90
63537;DHT22;49686;51.880;5.632;2024-03-07T13:19:52;10.30;99.90
63537;DHT22;49686;51.880;5.632;2024-03-07T13:22:19;10.40;99.90
63537;DHT22;49686;51.880;5.632;2024-03-07T13:24:46;10.30;99.90
63537;DHT22;49686;51.880;5.632;2024-03-07T13:27:13;10.60;99.90
63537;DHT22;49686;51.880;5.632;2024-03-07T13:29:49;10.50;99.90
63537;DHT22;49686;51.880;5.632;2024-03-07T13:32:19;10.40;99.90
63537;DHT22;49686;51.880;5.632;2024-03-07T13:34:46;10.20;99.90
63537;DHT22;49686;51.880;5.632;2024-03-07T13:37:15;9.90;99.90
63537;DHT22;49686;51.880;5.632;2024-03-07T13:39:45;9.90;99.90
63537;DHT22;49686;51.880;5.632;2024-03-07T13:42:11;9.80;99.90
63537;DHT22;49686;51.880;5.632;2024-03-07T13:44:38;9.60;99.90
63537;DHT22;49686;51.880;5.632;2024-03-07T13:47:05;9.60;99.90
63537;DHT22;49686;51.880;5.632;2024-03-07T13:49:32;9.50;99.90
63537;DHT22;49686;51.880;5.632;2024-03-07T13:52:02;9.50;99.90
63537;DHT22;49686;51.880;5.632;2024-03-07T13:54:39;9.60;99.90
63537;DHT22;49686;51.880;5.632;2024-03-07T13:57:16;9.60;99.90
63537;DHT22;49686;51.880;5.632;2024-03-07T14:00:09;9.80;99.90
63537;DHT22;49686;51.880;5.632;2024-03-07T14:03:10;10.20;99.90
63537;DHT22;49686;51.880;5.632;2024-03-07T14:05:54;10.30;99.90
63537;DHT22;49686;51.880;5.632;2024-03-07T14:08:49;10.30;99.90
63537;DHT22;49686;51.880;5.632;2024-03-07T14:14:53;9.90;99.90
63537;DHT22;49686;51.880;5.632;2024-03-07T14:18:00;9.80;99.90
63537;DHT22;49686;51.880;5.632;2024-03-07T14:24:08;9.60;99.90
63537;DHT22;49686;51.880;5.632;2024-03-07T14:27:09;9.70;99.90
63537;DHT22;49686;51.880;5.632;2024-03-07T14:29:47;9.60;99.90
63537;DHT22;49686;51.880;5.632;2024-03-07T14:32:16;9.60;99.90
63537;DHT22;49686;51.880;5.632;2024-03-07T14:34:53;9.70;99.90
63537;DHT22;49686;51.880;5.632;2024-03-07T14:37:23;9.80;99.90
63537;DHT22;49686;51.880;5.632;2024-03-07T14:40:07;9.80;99.90
63537;DHT22;49686;51.880;5.632;2024-03-07T14:42:39;9.80;99.90
63537;DHT22;49686;51.880;5.632;2024-03-07T14:45:14;10.00;99.90
63537;DHT22;49686;51.880;5.632;2024-03-07T14:47:45;10.00;99.90
63537;DHT22;49686;51.880;5.632;2024-03-07T14:50:16;9.90;99.90
63537;DHT22;49686;51.880;5.632;2024-03-07T14:52:43;9.80;99.90
63537;DHT22;49686;51.880;5.632;2024-03-07T14:55:13;9.70;99.90
63537;DHT22;49686;51.880;5.632;2024-03-07T14:57:40;9.70;99.90
63537;DHT22;49686;51.880;5.632;2024-03-07T15:00:10;9.70;99.90
63537;DHT22;49686;51.880;5.632;2024-03-07T15:02:54;9.80;99.90
63537;DHT22;49686;51.880;5.632;2024-03-07T15:05:21;9.70;99.90
63537;DHT22;49686;51.880;5.632;2024-03-07T15:07:49;9.70;99.90
63537;DHT22;49686;51.880;5.632;2024-03-07T15:10:27;9.70;99.90
63537;DHT22;49686;51.880;5.632;2024-03-07T15:12:54;9.90;99.90
63537;DHT22;49686;51.880;5.632;2024-03-07T15:15:22;10.10;99.90
63537;DHT22;49686;51.880;5.632;2024-03-07T15:17:50;10.10;99.90
63537;DHT22;49686;51.880;5.632;2024-03-07T15:20:19;10.30;99.90
63537;DHT22;49686;51.880;5.632;2024-03-07T15:22:46;10.10;99.90
63537;DHT22;49686;51.880;5.632;2024-03-07T15:25:13;9.90;99.90
63537;DHT22;49686;51.880;5.632;2024-03-07T15:27:40;9.80;99.90
63537;DHT22;49686;51.880;5.632;2024-03-07T15:30:07;9.70;99.90
63537;DHT22;49686;51.880;5.632;2024-03-07T15:32:35;9.60;99.90
63537;DHT22;49686;51.880;5.632;2024-03-07T15:35:03;9.40;99.90
63537;DHT22;49686;51.880;5.632;2024-03-07T15:37:30;9.40;99.90
63537;DHT22;49686;51.880;5.632;2024-03-07T15:39:57;9.50;99.90
63537;DHT22;49686;51.880;5.632;2024-03-07T15:42:24;9.50;99.90
63537;DHT22;49686;51.880;5.632;2024-03-07T15:44:51;9.60;99.90
63537;DHT22;49686;51.880;5.632;2024-03-07T15:47:19;9.70;99.90
63537;DHT22;49686;51.880;5.632;2024-03-07T15:49:47;9.80;99.90
63537;DHT22;49686;51.880;5.632;2024-03-07T15:52:14;9.90;99.90
63537;DHT22;49686;51.880;5.632;2024-03-07T15:54:42;9.80;99.90
63537;DHT22;49686;51.880;5.632;2024-03-07T15:57:12;9.60;99.90
63537;DHT22;49686;51.880;5.632;2024-03-07T15:59:48;9.40;99.90
63537;DHT22;49686;51.880;5.632;2024-03-07T16:02:28;9.30;99.90
63537;DHT22;49686;51.880;5.632;2024-03-07T16:04:59;9.20;99.90